< < Back
Terminal Aerodrome Forecast


Current Version              Previous Versions:   1  2  3  4  5  6  7  8  9  

Terminal Aerodrome Forecast

695
FTAK31 PAJN 260500
TAFAGS
TAF
PAGS 260526Z 2606/2706 00000KT P6SM BCFG FEW003
      TEMPO 2611/2615 1SM BR BKN003
     FM261500 VRB02KT P6SM VCSH SCT045 OVC070
     FM262000 11004KT P6SM -SHRA OVC035
      AMD NOT SKED=



Latest METAR

698
SAUS70 KWBC 260900 RRD
MTRAGS
METAR KAGS 260853Z AUTO 00000KT 7SM CLR 07/06 A2993 RMK AO2 SLP134
T00670061 58006


USA.gov is the U.S. government's official web portal to all federal, state and local government web resources and services.